sensor_id;sensor_type;location;lat;lon;timestamp;P1;durP1;ratioP1;P2;durP2;ratioP2
32876;SDS011;19226;51.600;8.034;2023-06-26T00:02:32;5.20;;;4.38;;
32876;SDS011;19226;51.600;8.034;2023-06-26T00:05:17;4.30;;;3.90;;
32876;SDS011;19226;51.600;8.034;2023-06-26T00:08:01;6.70;;;5.47;;
32876;SDS011;19226;51.600;8.034;2023-06-26T00:10:46;5.43;;;4.50;;
32876;SDS011;19226;51.600;8.034;2023-06-26T00:13:34;5.03;;;4.50;;
32876;SDS011;19226;51.600;8.034;2023-06-26T00:16:18;4.90;;;4.18;;
32876;SDS011;19226;51.600;8.034;2023-06-26T00:19:04;7.28;;;4.45;;
32876;SDS011;19226;51.600;8.034;2023-06-26T00:21:49;7.35;;;4.13;;
32876;SDS011;19226;51.600;8.034;2023-06-26T00:24:33;4.47;;;4.07;;
32876;SDS011;19226;51.600;8.034;2023-06-26T00:27:18;7.47;;;4.45;;
32876;SDS011;19226;51.600;8.034;2023-06-26T00:30:02;9.25;;;4.32;;
32876;SDS011;19226;51.600;8.034;2023-06-26T00:32:47;7.13;;;4.32;;
32876;SDS011;19226;51.600;8.034;2023-06-26T00:35:32;6.63;;;4.10;;
32876;SDS011;19226;51.600;8.034;2023-06-26T00:38:16;7.03;;;4.22;;
32876;SDS011;19226;51.600;8.034;2023-06-26T00:41:01;5.35;;;4.07;;
32876;SDS011;19226;51.600;8.034;2023-06-26T00:43:47;6.97;;;4.18;;
32876;SDS011;19226;51.600;8.034;2023-06-26T00:46:32;4.90;;;4.50;;
32876;SDS011;19226;51.600;8.034;2023-06-26T00:49:17;6.68;;;4.70;;
32876;SDS011;19226;51.600;8.034;2023-06-26T00:52:01;12.65;;;4.60;;
32876;SDS011;19226;51.600;8.034;2023-06-26T00:54:48;5.32;;;4.55;;
32876;SDS011;19226;51.600;8.034;2023-06-26T00:57:35;8.13;;;4.75;;
32876;SDS011;19226;51.600;8.034;2023-06-26T01:00:19;7.95;;;4.47;;
32876;SDS011;19226;51.600;8.034;2023-06-26T01:03:04;4.78;;;4.38;;
32876;SDS011;19226;51.600;8.034;2023-06-26T01:05:49;4.70;;;4.30;;
32876;SDS011;19226;51.600;8.034;2023-06-26T01:08:36;8.25;;;4.88;;
32876;SDS011;19226;51.600;8.034;2023-06-26T01:11:21;5.38;;;4.30;;
32876;SDS011;19226;51.600;8.034;2023-06-26T01:14:05;7.20;;;3.92;;
32876;SDS011;19226;51.600;8.034;2023-06-26T01:16:50;5.13;;;4.32;;
32876;SDS011;19226;51.600;8.034;2023-06-26T01:19:35;4.70;;;4.30;;
32876;SDS011;19226;51.600;8.034;2023-06-26T01:28:23;6.18;;;4.30;;
32876;SDS011;19226;51.600;8.034;2023-06-26T01:31:10;16.98;;;4.55;;
32876;SDS011;19226;51.600;8.034;2023-06-26T01:33:56;5.97;;;4.30;;
32876;SDS011;19226;51.600;8.034;2023-06-26T01:36:43;5.18;;;3.90;;
32876;SDS011;19226;51.600;8.034;2023-06-26T01:39:29;5.65;;;4.47;;
32876;SDS011;19226;51.600;8.034;2023-06-26T01:42:13;4.90;;;4.00;;
32876;SDS011;19226;51.600;8.034;2023-06-26T01:44:58;11.88;;;4.22;;
32876;SDS011;19226;51.600;8.034;2023-06-26T01:47:53;5.05;;;4.53;;
32876;SDS011;19226;51.600;8.034;2023-06-26T01:50:41;8.02;;;4.63;;
32876;SDS011;19226;51.600;8.034;2023-06-26T01:53:29;6.28;;;4.50;;
32876;SDS011;19226;51.600;8.034;2023-06-26T01:56:28;5.25;;;4.03;;
32876;SDS011;19226;51.600;8.034;2023-06-26T01:59:13;4.50;;;4.10;;
32876;SDS011;19226;51.600;8.034;2023-06-26T02:02:00;8.75;;;4.13;;
32876;SDS011;19226;51.600;8.034;2023-06-26T02:04:45;4.55;;;4.15;;
32876;SDS011;19226;51.600;8.034;2023-06-26T02:07:32;6.78;;;4.47;;
32876;SDS011;19226;51.600;8.034;2023-06-26T02:10:16;8.77;;;4.28;;
32876;SDS011;19226;51.600;8.034;2023-06-26T02:13:01;4.82;;;4.32;;
32876;SDS011;19226;51.600;8.034;2023-06-26T02:15:46;6.65;;;4.60;;
32876;SDS011;19226;51.600;8.034;2023-06-26T02:18:31;5.78;;;3.92;;
32876;SDS011;19226;51.600;8.034;2023-06-26T02:21:16;4.85;;;4.35;;
32876;SDS011;19226;51.600;8.034;2023-06-26T02:24:01;7.43;;;4.32;;
32876;SDS011;19226;51.600;8.034;2023-06-26T02:26:46;8.02;;;4.55;;
32876;SDS011;19226;51.600;8.034;2023-06-26T02:29:30;5.50;;;4.28;;
32876;SDS011;19226;51.600;8.034;2023-06-26T02:32:15;4.28;;;3.88;;
32876;SDS011;19226;51.600;8.034;2023-06-26T02:35:00;5.57;;;4.53;;
32876;SDS011;19226;51.600;8.034;2023-06-26T02:37:44;5.03;;;4.40;;
32876;SDS011;19226;51.600;8.034;2023-06-26T02:40:29;4.82;;;4.40;;
32876;SDS011;19226;51.600;8.034;2023-06-26T02:43:14;9.20;;;4.20;;
32876;SDS011;19226;51.600;8.034;2023-06-26T02:45:59;8.98;;;4.65;;
32876;SDS011;19226;51.600;8.034;2023-06-26T02:48:43;5.32;;;4.45;;
32876;SDS011;19226;51.600;8.034;2023-06-26T02:51:28;5.82;;;4.65;;
32876;SDS011;19226;51.600;8.034;2023-06-26T02:54:15;7.55;;;4.53;;
32876;SDS011;19226;51.600;8.034;2023-06-26T02:57:02;4.75;;;4.30;;
32876;SDS011;19226;51.600;8.034;2023-06-26T02:59:49;4.32;;;3.92;;
32876;SDS011;19226;51.600;8.034;2023-06-26T03:02:33;6.35;;;4.63;;
32876;SDS011;19226;51.600;8.034;2023-06-26T03:05:18;7.25;;;4.35;;
32876;SDS011;19226;51.600;8.034;2023-06-26T03:08:03;5.35;;;3.78;;
32876;SDS011;19226;51.600;8.034;2023-06-26T03:10:48;8.57;;;4.60;;
32876;SDS011;19226;51.600;8.034;2023-06-26T03:13:33;7.40;;;4.53;;
32876;SDS011;19226;51.600;8.034;2023-06-26T03:16:18;4.88;;;4.20;;
32876;SDS011;19226;51.600;8.034;2023-06-26T03:19:04;4.10;;;3.70;;
32876;SDS011;19226;51.600;8.034;2023-06-26T03:21:54;9.93;;;4.78;;
32876;SDS011;19226;51.600;8.034;2023-06-26T03:24:38;6.35;;;4.57;;
32876;SDS011;19226;51.600;8.034;2023-06-26T03:27:23;5.55;;;4.32;;
32876;SDS011;19226;51.600;8.034;2023-06-26T03:30:08;4.90;;;3.85;;
32876;SDS011;19226;51.600;8.034;2023-06-26T03:32:56;6.03;;;4.78;;
32876;SDS011;19226;51.600;8.034;2023-06-26T03:35:40;5.32;;;4.38;;
32876;SDS011;19226;51.600;8.034;2023-06-26T03:38:28;4.75;;;4.25;;
32876;SDS011;19226;51.600;8.034;2023-06-26T03:41:15;7.32;;;4.13;;
32876;SDS011;19226;51.600;8.034;2023-06-26T03:43:59;4.43;;;4.03;;
32876;SDS011;19226;51.600;8.034;2023-06-26T03:46:50;5.43;;;4.35;;
32876;SDS011;19226;51.600;8.034;2023-06-26T03:49:35;6.30;;;4.50;;
32876;SDS011;19226;51.600;8.034;2023-06-26T03:52:19;4.68;;;4.25;;
32876;SDS011;19226;51.600;8.034;2023-06-26T03:55:04;4.63;;;4.25;;
32876;SDS011;19226;51.600;8.034;2023-06-26T03:57:49;7.00;;;3.90;;
32876;SDS011;19226;51.600;8.034;2023-06-26T04:00:34;4.45;;;4.03;;
32876;SDS011;19226;51.600;8.034;2023-06-26T04:03:18;7.05;;;3.83;;
32876;SDS011;19226;51.600;8.034;2023-06-26T04:06:05;6.10;;;4.38;;
32876;SDS011;19226;51.600;8.034;2023-06-26T04:08:50;5.00;;;4.50;;
32876;SDS011;19226;51.600;8.034;2023-06-26T04:11:35;6.13;;;4.20;;
32876;SDS011;19226;51.600;8.034;2023-06-26T04:14:19;8.50;;;4.60;;
32876;SDS011;19226;51.600;8.034;2023-06-26T04:17:04;7.25;;;5.10;;
32876;SDS011;19226;51.600;8.034;2023-06-26T04:19:48;6.65;;;4.32;;
32876;SDS011;19226;51.600;8.034;2023-06-26T04:22:33;5.03;;;4.47;;
32876;SDS011;19226;51.600;8.034;2023-06-26T04:25:19;5.15;;;4.47;;
32876;SDS011;19226;51.600;8.034;2023-06-26T04:28:04;5.63;;;4.50;;
32876;SDS011;19226;51.600;8.034;2023-06-26T04:30:49;4.35;;;3.95;;
32876;SDS011;19226;51.600;8.034;2023-06-26T04:33:33;5.47;;;4.97;;
32876;SDS011;19226;51.600;8.034;2023-06-26T04:36:20;8.63;;;4.07;;
32876;SDS011;19226;51.600;8.034;2023-06-26T04:39:05;10.35;;;4.40;;
32876;SDS011;19226;51.600;8.034;2023-06-26T04:41:49;4.40;;;3.90;;
32876;SDS011;19226;51.600;8.034;2023-06-26T04:44:34;4.57;;;4.18;;
32876;SDS011;19226;51.600;8.034;2023-06-26T04:47:19;4.80;;;4.35;;
32876;SDS011;19226;51.600;8.034;2023-06-26T04:50:03;6.07;;;4.43;;
32876;SDS011;19226;51.600;8.034;2023-06-26T04:52:48;9.30;;;4.40;;
32876;SDS011;19226;51.600;8.034;2023-06-26T04:55:33;5.18;;;4.13;;
32876;SDS011;19226;51.600;8.034;2023-06-26T04:58:18;6.20;;;4.07;;
32876;SDS011;19226;51.600;8.034;2023-06-26T05:01:02;5.15;;;4.57;;
32876;SDS011;19226;51.600;8.034;2023-06-26T05:03:50;4.53;;;4.13;;
32876;SDS011;19226;51.600;8.034;2023-06-26T05:06:34;3.83;;;3.47;;
32876;SDS011;19226;51.600;8.034;2023-06-26T05:09:19;4.82;;;4.00;;
32876;SDS011;19226;51.600;8.034;2023-06-26T05:12:04;8.45;;;4.38;;
32876;SDS011;19226;51.600;8.034;2023-06-26T05:14:49;8.85;;;4.60;;
32876;SDS011;19226;51.600;8.034;2023-06-26T05:17:33;4.13;;;3.72;;
32876;SDS011;19226;51.600;8.034;2023-06-26T05:20:18;6.57;;;4.20;;
32876;SDS011;19226;51.600;8.034;2023-06-26T05:23:03;6.13;;;4.20;;
32876;SDS011;19226;51.600;8.034;2023-06-26T05:25:47;6.35;;;4.18;;
32876;SDS011;19226;51.600;8.034;2023-06-26T05:28:34;3.85;;;3.45;;
32876;SDS011;19226;51.600;8.034;2023-06-26T05:31:20;5.40;;;4.72;;
32876;SDS011;19226;51.600;8.034;2023-06-26T05:34:04;4.53;;;4.13;;
32876;SDS011;19226;51.600;8.034;2023-06-26T05:36:51;4.93;;;4.45;;
32876;SDS011;19226;51.600;8.034;2023-06-26T05:39:36;5.97;;;4.47;;
32876;SDS011;19226;51.600;8.034;2023-06-26T05:42:20;9.32;;;4.50;;
32876;SDS011;19226;51.600;8.034;2023-06-26T05:45:05;6.28;;;4.38;;
32876;SDS011;19226;51.600;8.034;2023-06-26T05:47:50;9.20;;;4.07;;
32876;SDS011;19226;51.600;8.034;2023-06-26T05:50:35;6.72;;;4.05;;
32876;SDS011;19226;51.600;8.034;2023-06-26T05:53:20;5.15;;;4.30;;
32876;SDS011;19226;51.600;8.034;2023-06-26T05:56:04;8.05;;;4.55;;
32876;SDS011;19226;51.600;8.034;2023-06-26T05:58:49;4.38;;;3.97;;
32876;SDS011;19226;51.600;8.034;2023-06-26T06:01:35;6.85;;;4.13;;
32876;SDS011;19226;51.600;8.034;2023-06-26T06:04:20;6.97;;;4.38;;
32876;SDS011;19226;51.600;8.034;2023-06-26T06:07:05;6.97;;;4.53;;
32876;SDS011;19226;51.600;8.034;2023-06-26T06:09:49;7.10;;;4.30;;
32876;SDS011;19226;51.600;8.034;2023-06-26T06:12:34;7.57;;;4.60;;
32876;SDS011;19226;51.600;8.034;2023-06-26T06:15:19;10.38;;;4.13;;
32876;SDS011;19226;51.600;8.034;2023-06-26T06:18:03;10.05;;;5.03;;
32876;SDS011;19226;51.600;8.034;2023-06-26T06:20:48;9.68;;;4.55;;
32876;SDS011;19226;51.600;8.034;2023-06-26T06:23:33;8.35;;;4.30;;
32876;SDS011;19226;51.600;8.034;2023-06-26T06:26:17;8.02;;;4.57;;
32876;SDS011;19226;51.600;8.034;2023-06-26T06:29:02;9.25;;;4.30;;
32876;SDS011;19226;51.600;8.034;2023-06-26T06:31:47;8.52;;;4.75;;
32876;SDS011;19226;51.600;8.034;2023-06-26T06:34:32;13.57;;;4.80;;
32876;SDS011;19226;51.600;8.034;2023-06-26T06:37:16;7.03;;;5.32;;
32876;SDS011;19226;51.600;8.034;2023-06-26T06:40:01;6.57;;;4.07;;
32876;SDS011;19226;51.600;8.034;2023-06-26T06:42:45;12.60;;;4.72;;
32876;SDS011;19226;51.600;8.034;2023-06-26T06:45:30;11.20;;;5.05;;
32876;SDS011;19226;51.600;8.034;2023-06-26T06:48:15;9.05;;;5.03;;
32876;SDS011;19226;51.600;8.034;2023-06-26T06:50:59;5.78;;;4.35;;
32876;SDS011;19226;51.600;8.034;2023-06-26T06:53:44;5.82;;;4.80;;
32876;SDS011;19226;51.600;8.034;2023-06-26T06:56:28;13.77;;;4.60;;
32876;SDS011;19226;51.600;8.034;2023-06-26T06:59:13;6.07;;;4.50;;
32876;SDS011;19226;51.600;8.034;2023-06-26T07:01:57;8.63;;;3.95;;
32876;SDS011;19226;51.600;8.034;2023-06-26T07:04:42;6.85;;;4.93;;
32876;SDS011;19226;51.600;8.034;2023-06-26T07:07:28;9.45;;;4.90;;
32876;SDS011;19226;51.600;8.034;2023-06-26T07:10:14;11.23;;;5.28;;
32876;SDS011;19226;51.600;8.034;2023-06-26T07:13:00;10.18;;;5.22;;
32876;SDS011;19226;51.600;8.034;2023-06-26T07:15:45;7.53;;;5.20;;
32876;SDS011;19226;51.600;8.034;2023-06-26T07:18:31;10.40;;;4.90;;
32876;SDS011;19226;51.600;8.034;2023-06-26T07:21:15;9.73;;;5.10;;
32876;SDS011;19226;51.600;8.034;2023-06-26T07:24:01;7.13;;;4.30;;
32876;SDS011;19226;51.600;8.034;2023-06-26T07:26:46;9.85;;;4.90;;
32876;SDS011;19226;51.600;8.034;2023-06-26T07:29:31;5.57;;;4.97;;
32876;SDS011;19226;51.600;8.034;2023-06-26T07:32:16;9.88;;;6.15;;
32876;SDS011;19226;51.600;8.034;2023-06-26T07:35:00;17.08;;;6.65;;
32876;SDS011;19226;51.600;8.034;2023-06-26T07:37:44;25.77;;;8.65;;
32876;SDS011;19226;51.600;8.034;2023-06-26T07:40:29;12.15;;;6.47;;
32876;SDS011;19226;51.600;8.034;2023-06-26T07:43:14;9.05;;;6.68;;
32876;SDS011;19226;51.600;8.034;2023-06-26T07:45:58;18.48;;;6.88;;
32876;SDS011;19226;51.600;8.034;2023-06-26T07:48:44;10.13;;;7.03;;
32876;SDS011;19226;51.600;8.034;2023-06-26T07:51:29;10.65;;;6.20;;
32876;SDS011;19226;51.600;8.034;2023-06-26T07:54:14;13.95;;;7.00;;
32876;SDS011;19226;51.600;8.034;2023-06-26T07:56:59;13.27;;;7.68;;
32876;SDS011;19226;51.600;8.034;2023-06-26T07:59:48;12.48;;;6.35;;
32876;SDS011;19226;51.600;8.034;2023-06-26T08:02:34;11.23;;;7.05;;
32876;SDS011;19226;51.600;8.034;2023-06-26T08:05:18;8.38;;;6.20;;
32876;SDS011;19226;51.600;8.034;2023-06-26T08:08:03;11.90;;;7.32;;
32876;SDS011;19226;51.600;8.034;2023-06-26T08:10:48;9.80;;;6.05;;
32876;SDS011;19226;51.600;8.034;2023-06-26T08:13:32;12.13;;;5.47;;
32876;SDS011;19226;51.600;8.034;2023-06-26T08:16:16;9.32;;;5.78;;
32876;SDS011;19226;51.600;8.034;2023-06-26T08:19:01;15.77;;;5.70;;
32876;SDS011;19226;51.600;8.034;2023-06-26T08:21:46;11.00;;;5.13;;
32876;SDS011;19226;51.600;8.034;2023-06-26T08:24:30;13.85;;;5.20;;
32876;SDS011;19226;51.600;8.034;2023-06-26T08:27:15;9.82;;;5.55;;
32876;SDS011;19226;51.600;8.034;2023-06-26T08:29:59;12.30;;;5.25;;
32876;SDS011;19226;51.600;8.034;2023-06-26T08:32:44;15.50;;;5.88;;
32876;SDS011;19226;51.600;8.034;2023-06-26T08:35:28;10.35;;;4.90;;
32876;SDS011;19226;51.600;8.034;2023-06-26T08:38:13;8.13;;;4.53;;
32876;SDS011;19226;51.600;8.034;2023-06-26T08:40:58;13.07;;;4.65;;
32876;SDS011;19226;51.600;8.034;2023-06-26T08:43:43;8.73;;;4.90;;
32876;SDS011;19226;51.600;8.034;2023-06-26T08:46:27;13.68;;;4.45;;
32876;SDS011;19226;51.600;8.034;2023-06-26T08:49:14;14.18;;;5.28;;
32876;SDS011;19226;51.600;8.034;2023-06-26T08:52:11;14.30;;;4.57;;
32876;SDS011;19226;51.600;8.034;2023-06-26T08:55:02;15.60;;;5.20;;
32876;SDS011;19226;51.600;8.034;2023-06-26T08:57:50;12.60;;;5.80;;
32876;SDS011;19226;51.600;8.034;2023-06-26T09:00:37;10.65;;;5.47;;
32876;SDS011;19226;51.600;8.034;2023-06-26T09:03:22;17.02;;;5.55;;
32876;SDS011;19226;51.600;8.034;2023-06-26T09:06:09;15.02;;;5.35;;
32876;SDS011;19226;51.600;8.034;2023-06-26T09:08:54;12.27;;;5.82;;
32876;SDS011;19226;51.600;8.034;2023-06-26T09:11:39;12.05;;;5.78;;
32876;SDS011;19226;51.600;8.034;2023-06-26T09:14:24;11.02;;;5.95;;
32876;SDS011;19226;51.600;8.034;2023-06-26T09:17:08;16.33;;;6.28;;
32876;SDS011;19226;51.600;8.034;2023-06-26T09:19:54;16.25;;;6.10;;
32876;SDS011;19226;51.600;8.034;2023-06-26T09:22:40;13.65;;;6.55;;
32876;SDS011;19226;51.600;8.034;2023-06-26T09:25:26;9.63;;;5.53;;
32876;SDS011;19226;51.600;8.034;2023-06-26T09:28:11;12.90;;;5.72;;
32876;SDS011;19226;51.600;8.034;2023-06-26T09:30:59;12.40;;;6.22;;
32876;SDS011;19226;51.600;8.034;2023-06-26T09:33:48;11.43;;;5.85;;
32876;SDS011;19226;51.600;8.034;2023-06-26T09:36:39;25.58;;;5.47;;
32876;SDS011;19226;51.600;8.034;2023-06-26T09:39:26;16.33;;;4.97;;
32876;SDS011;19226;51.600;8.034;2023-06-26T09:42:10;15.15;;;5.30;;
32876;SDS011;19226;51.600;8.034;2023-06-26T09:44:57;8.80;;;4.95;;
32876;SDS011;19226;51.600;8.034;2023-06-26T09:47:43;12.23;;;4.88;;
32876;SDS011;19226;51.600;8.034;2023-06-26T09:50:28;10.95;;;4.88;;
32876;SDS011;19226;51.600;8.034;2023-06-26T09:53:13;7.70;;;5.13;;
32876;SDS011;19226;51.600;8.034;2023-06-26T09:56:14;13.35;;;5.90;;
32876;SDS011;19226;51.600;8.034;2023-06-26T09:59:03;12.25;;;6.35;;
32876;SDS011;19226;51.600;8.034;2023-06-26T10:01:48;13.02;;;6.53;;
32876;SDS011;19226;51.600;8.034;2023-06-26T10:04:43;15.35;;;4.75;;
32876;SDS011;19226;51.600;8.034;2023-06-26T10:07:27;11.43;;;4.60;;
32876;SDS011;19226;51.600;8.034;2023-06-26T10:10:12;15.55;;;5.10;;
32876;SDS011;19226;51.600;8.034;2023-06-26T10:13:04;7.22;;;4.10;;
32876;SDS011;19226;51.600;8.034;2023-06-26T10:16:02;9.85;;;4.25;;
32876;SDS011;19226;51.600;8.034;2023-06-26T10:18:47;10.20;;;4.07;;
32876;SDS011;19226;51.600;8.034;2023-06-26T10:21:42;12.35;;;4.72;;
32876;SDS011;19226;51.600;8.034;2023-06-26T10:24:28;11.43;;;4.97;;
32876;SDS011;19226;51.600;8.034;2023-06-26T10:27:19;8.65;;;4.50;;
32876;SDS011;19226;51.600;8.034;2023-06-26T10:30:06;7.13;;;3.60;;
32876;SDS011;19226;51.600;8.034;2023-06-26T10:32:56;11.32;;;4.38;;
32876;SDS011;19226;51.600;8.034;2023-06-26T10:35:44;8.55;;;3.80;;
32876;SDS011;19226;51.600;8.034;2023-06-26T10:38:47;10.68;;;4.22;;
32876;SDS011;19226;51.600;8.034;2023-06-26T10:41:38;9.43;;;3.65;;
32876;SDS011;19226;51.600;8.034;2023-06-26T10:44:28;9.00;;;3.53;;
32876;SDS011;19226;51.600;8.034;2023-06-26T10:47:29;10.40;;;3.70;;
32876;SDS011;19226;51.600;8.034;2023-06-26T10:53:11;7.93;;;3.45;;
32876;SDS011;19226;51.600;8.034;2023-06-26T10:56:06;14.07;;;4.15;;
32876;SDS011;19226;51.600;8.034;2023-06-26T10:58:51;8.18;;;2.55;;
32876;SDS011;19226;51.600;8.034;2023-06-26T11:01:40;7.32;;;2.88;;
32876;SDS011;19226;51.600;8.034;2023-06-26T11:07:23;9.13;;;3.05;;
32876;SDS011;19226;51.600;8.034;2023-06-26T11:10:09;8.10;;;2.85;;
32876;SDS011;19226;51.600;8.034;2023-06-26T11:12:53;5.93;;;2.63;;
32876;SDS011;19226;51.600;8.034;2023-06-26T11:15:42;5.67;;;3.10;;
32876;SDS011;19226;51.600;8.034;2023-06-26T11:18:28;7.30;;;2.83;;
32876;SDS011;19226;51.600;8.034;2023-06-26T11:21:12;8.73;;;2.22;;
32876;SDS011;19226;51.600;8.034;2023-06-26T11:23:58;5.53;;;2.67;;
32876;SDS011;19226;51.600;8.034;2023-06-26T11:26:45;12.93;;;2.78;;
32876;SDS011;19226;51.600;8.034;2023-06-26T11:29:32;6.25;;;2.38;;
32876;SDS011;19226;51.600;8.034;2023-06-26T11:32:17;7.43;;;2.50;;
32876;SDS011;19226;51.600;8.034;2023-06-26T11:35:02;4.05;;;2.35;;
32876;SDS011;19226;51.600;8.034;2023-06-26T11:37:48;6.07;;;2.28;;
32876;SDS011;19226;51.600;8.034;2023-06-26T11:40:33;10.13;;;2.20;;
32876;SDS011;19226;51.600;8.034;2023-06-26T11:43:19;5.15;;;1.92;;
32876;SDS011;19226;51.600;8.034;2023-06-26T11:46:04;5.82;;;2.30;;
32876;SDS011;19226;51.600;8.034;2023-06-26T11:48:48;5.00;;;2.08;;
32876;SDS011;19226;51.600;8.034;2023-06-26T11:51:33;4.65;;;2.45;;
32876;SDS011;19226;51.600;8.034;2023-06-26T11:54:23;4.55;;;1.92;;
32876;SDS011;19226;51.600;8.034;2023-06-26T11:57:13;8.05;;;3.30;;
32876;SDS011;19226;51.600;8.034;2023-06-26T11:59:58;12.75;;;2.40;;
32876;SDS011;19226;51.600;8.034;2023-06-26T12:02:54;5.00;;;2.20;;
32876;SDS011;19226;51.600;8.034;2023-06-26T12:05:39;6.60;;;2.40;;
32876;SDS011;19226;51.600;8.034;2023-06-26T12:08:24;17.25;;;2.38;;
32876;SDS011;19226;51.600;8.034;2023-06-26T12:11:09;6.97;;;1.75;;
32876;SDS011;19226;51.600;8.034;2023-06-26T12:13:54;3.70;;;1.75;;
32876;SDS011;19226;51.600;8.034;2023-06-26T12:16:38;3.67;;;2.10;;
32876;SDS011;19226;51.600;8.034;2023-06-26T12:19:24;3.40;;;2.25;;
32876;SDS011;19226;51.600;8.034;2023-06-26T12:22:12;6.80;;;2.70;;
32876;SDS011;19226;51.600;8.034;2023-06-26T12:24:56;4.95;;;1.42;;
32876;SDS011;19226;51.600;8.034;2023-06-26T12:27:51;2.50;;;1.50;;
32876;SDS011;19226;51.600;8.034;2023-06-26T12:30:35;7.15;;;2.00;;
32876;SDS011;19226;51.600;8.034;2023-06-26T12:33:20;3.13;;;2.00;;
32876;SDS011;19226;51.600;8.034;2023-06-26T12:36:04;5.85;;;2.40;;
32876;SDS011;19226;51.600;8.034;2023-06-26T12:38:54;2.95;;;1.83;;
32876;SDS011;19226;51.600;8.034;2023-06-26T12:44:30;7.57;;;2.40;;
32876;SDS011;19226;51.600;8.034;2023-06-26T12:47:16;5.47;;;2.05;;
32876;SDS011;19226;51.600;8.034;2023-06-26T12:50:04;2.83;;;1.85;;
32876;SDS011;19226;51.600;8.034;2023-06-26T12:52:50;5.72;;;1.67;;
32876;SDS011;19226;51.600;8.034;2023-06-26T12:55:34;13.57;;;2.40;;
32876;SDS011;19226;51.600;8.034;2023-06-26T12:58:21;4.28;;;2.03;;
32876;SDS011;19226;51.600;8.034;2023-06-26T13:01:07;5.57;;;2.03;;
32876;SDS011;19226;51.600;8.034;2023-06-26T13:03:58;9.10;;;2.03;;
32876;SDS011;19226;51.600;8.034;2023-06-26T13:06:43;8.10;;;2.10;;
32876;SDS011;19226;51.600;8.034;2023-06-26T13:09:31;5.00;;;1.77;;
32876;SDS011;19226;51.600;8.034;2023-06-26T13:12:17;5.45;;;1.95;;
32876;SDS011;19226;51.600;8.034;2023-06-26T13:15:01;3.72;;;1.90;;
32876;SDS011;19226;51.600;8.034;2023-06-26T13:17:46;5.45;;;1.90;;
32876;SDS011;19226;51.600;8.034;2023-06-26T13:20:30;2.80;;;1.88;;
32876;SDS011;19226;51.600;8.034;2023-06-26T13:23:15;3.67;;;1.73;;
32876;SDS011;19226;51.600;8.034;2023-06-26T13:26:00;6.10;;;1.40;;
32876;SDS011;19226;51.600;8.034;2023-06-26T13:28:45;5.53;;;1.50;;
32876;SDS011;19226;51.600;8.034;2023-06-26T13:31:29;8.90;;;1.50;;
32876;SDS011;19226;51.600;8.034;2023-06-26T13:34:22;2.92;;;1.40;;
32876;SDS011;19226;51.600;8.034;2023-06-26T13:37:07;12.93;;;1.40;;
32876;SDS011;19226;51.600;8.034;2023-06-26T13:39:52;2.45;;;1.20;;
32876;SDS011;19226;51.600;8.034;2023-06-26T13:42:37;2.20;;;1.00;;
32876;SDS011;19226;51.600;8.034;2023-06-26T13:45:22;1.60;;;0.90;;
32876;SDS011;19226;51.600;8.034;2023-06-26T13:48:06;10.13;;;1.05;;
32876;SDS011;19226;51.600;8.034;2023-06-26T13:50:51;4.88;;;1.15;;
32876;SDS011;19226;51.600;8.034;2023-06-26T13:53:37;7.30;;;1.30;;
32876;SDS011;19226;51.600;8.034;2023-06-26T13:56:21;1.33;;;0.80;;
32876;SDS011;19226;51.600;8.034;2023-06-26T13:59:06;1.60;;;1.13;;
32876;SDS011;19226;51.600;8.034;2023-06-26T14:01:51;1.98;;;0.90;;
32876;SDS011;19226;51.600;8.034;2023-06-26T14:04:36;5.03;;;0.73;;
32876;SDS011;19226;51.600;8.034;2023-06-26T14:07:20;2.25;;;0.95;;
32876;SDS011;19226;51.600;8.034;2023-06-26T14:10:06;4.10;;;0.85;;
32876;SDS011;19226;51.600;8.034;2023-06-26T14:12:50;2.42;;;0.77;;
32876;SDS011;19226;51.600;8.034;2023-06-26T14:15:35;8.25;;;1.00;;
32876;SDS011;19226;51.600;8.034;2023-06-26T14:18:20;5.60;;;1.75;;
32876;SDS011;19226;51.600;8.034;2023-06-26T14:21:07;1.38;;;0.88;;
32876;SDS011;19226;51.600;8.034;2023-06-26T14:23:51;2.28;;;1.00;;
32876;SDS011;19226;51.600;8.034;2023-06-26T14:26:36;4.75;;;0.80;;
32876;SDS011;19226;51.600;8.034;2023-06-26T14:29:20;5.13;;;0.93;;
32876;SDS011;19226;51.600;8.034;2023-06-26T14:32:06;16.98;;;1.40;;
32876;SDS011;19226;51.600;8.034;2023-06-26T14:34:51;2.42;;;1.00;;
32876;SDS011;19226;51.600;8.034;2023-06-26T14:37:37;2.38;;;1.00;;
32876;SDS011;19226;51.600;8.034;2023-06-26T14:40:23;4.18;;;1.17;;
32876;SDS011;19226;51.600;8.034;2023-06-26T14:43:07;2.10;;;1.10;;
32876;SDS011;19226;51.600;8.034;2023-06-26T14:45:52;2.13;;;0.85;;
32876;SDS011;19226;51.600;8.034;2023-06-26T14:48:36;9.30;;;1.00;;
32876;SDS011;19226;51.600;8.034;2023-06-26T14:51:21;4.75;;;0.82;;
32876;SDS011;19226;51.600;8.034;2023-06-26T14:54:05;1.75;;;1.00;;
32876;SDS011;19226;51.600;8.034;2023-06-26T14:56:50;2.95;;;1.00;;
32876;SDS011;19226;51.600;8.034;2023-06-26T14:59:35;4.88;;;1.30;;
32876;SDS011;19226;51.600;8.034;2023-06-26T15:02:19;5.40;;;1.13;;
32876;SDS011;19226;51.600;8.034;2023-06-26T15:05:04;3.83;;;0.80;;
32876;SDS011;19226;51.600;8.034;2023-06-26T15:07:48;5.10;;;0.90;;
32876;SDS011;19226;51.600;8.034;2023-06-26T15:10:33;4.57;;;0.93;;
32876;SDS011;19226;51.600;8.034;2023-06-26T15:13:17;4.15;;;0.88;;
32876;SDS011;19226;51.600;8.034;2023-06-26T15:16:02;4.10;;;1.00;;
32876;SDS011;19226;51.600;8.034;2023-06-26T15:18:47;6.47;;;1.30;;
32876;SDS011;19226;51.600;8.034;2023-06-26T15:21:31;1.73;;;1.13;;
32876;SDS011;19226;51.600;8.034;2023-06-26T15:24:16;2.03;;;1.20;;
32876;SDS011;19226;51.600;8.034;2023-06-26T15:27:01;2.25;;;0.80;;
32876;SDS011;19226;51.600;8.034;2023-06-26T15:29:45;3.95;;;0.80;;
32876;SDS011;19226;51.600;8.034;2023-06-26T15:32:30;3.38;;;0.85;;
32876;SDS011;19226;51.600;8.034;2023-06-26T15:35:14;4.47;;;1.00;;
32876;SDS011;19226;51.600;8.034;2023-06-26T15:37:59;5.10;;;1.00;;
32876;SDS011;19226;51.600;8.034;2023-06-26T15:40:44;3.58;;;0.80;;
32876;SDS011;19226;51.600;8.034;2023-06-26T15:43:28;4.10;;;0.80;;
32876;SDS011;19226;51.600;8.034;2023-06-26T15:46:13;2.70;;;0.82;;
32876;SDS011;19226;51.600;8.034;2023-06-26T15:48:58;1.52;;;0.90;;
32876;SDS011;19226;51.600;8.034;2023-06-26T15:51:42;2.08;;;0.90;;
32876;SDS011;19226;51.600;8.034;2023-06-26T15:54:28;2.22;;;1.10;;
32876;SDS011;19226;51.600;8.034;2023-06-26T15:57:13;4.80;;;0.88;;
32876;SDS011;19226;51.600;8.034;2023-06-26T15:59:58;1.92;;;0.80;;
32876;SDS011;19226;51.600;8.034;2023-06-26T16:02:44;1.85;;;0.70;;
32876;SDS011;19226;51.600;8.034;2023-06-26T16:05:28;5.18;;;0.88;;
32876;SDS011;19226;51.600;8.034;2023-06-26T16:08:13;0.70;;;0.50;;
32876;SDS011;19226;51.600;8.034;2023-06-26T16:10:57;2.90;;;1.10;;
32876;SDS011;19226;51.600;8.034;2023-06-26T16:13:42;3.70;;;0.73;;
32876;SDS011;19226;51.600;8.034;2023-06-26T16:16:26;9.82;;;1.05;;
32876;SDS011;19226;51.600;8.034;2023-06-26T16:19:11;4.53;;;0.95;;
32876;SDS011;19226;51.600;8.034;2023-06-26T16:21:55;2.33;;;0.85;;
32876;SDS011;19226;51.600;8.034;2023-06-26T16:24:40;5.75;;;0.95;;
32876;SDS011;19226;51.600;8.034;2023-06-26T16:27:24;4.28;;;0.82;;
32876;SDS011;19226;51.600;8.034;2023-06-26T16:30:09;3.38;;;0.90;;
32876;SDS011;19226;51.600;8.034;2023-06-26T16:32:54;4.43;;;0.98;;
32876;SDS011;19226;51.600;8.034;2023-06-26T16:35:42;1.40;;;0.70;;
32876;SDS011;19226;51.600;8.034;2023-06-26T16:38:26;2.17;;;1.02;;
32876;SDS011;19226;51.600;8.034;2023-06-26T16:41:11;4.28;;;0.80;;
32876;SDS011;19226;51.600;8.034;2023-06-26T16:43:55;3.00;;;0.70;;
32876;SDS011;19226;51.600;8.034;2023-06-26T16:46:40;2.95;;;0.90;;
32876;SDS011;19226;51.600;8.034;2023-06-26T16:49:26;3.47;;;0.80;;
32876;SDS011;19226;51.600;8.034;2023-06-26T16:52:11;7.80;;;0.90;;